sensor_id;sensor_type;location;lat;lon;timestamp;pressure;altitude;pressure_sealevel;temperature;humidity
6528;BME280;64597;42.664;23.256;2024-01-10T00:01:12;95600.84;;;-3.56;63.08
6528;BME280;64597;42.664;23.256;2024-01-10T00:03:37;95604.81;;;-3.52;63.08
6528;BME280;64597;42.664;23.256;2024-01-10T00:06:03;95609.16;;;-3.53;63.34
6528;BME280;64597;42.664;23.256;2024-01-10T00:08:28;95608.31;;;-3.53;63.37
6528;BME280;64597;42.664;23.256;2024-01-10T00:10:54;95605.88;;;-3.55;63.28
6528;BME280;64597;42.664;23.256;2024-01-10T00:13:20;95606.44;;;-3.51;63.42
6528;BME280;64597;42.664;23.256;2024-01-10T00:15:47;95602.47;;;-3.55;63.32
6528;BME280;64597;42.664;23.256;2024-01-10T00:18:12;95599.66;;;-3.52;63.42
6528;BME280;64597;42.664;23.256;2024-01-10T00:20:38;95600.84;;;-3.56;63.14
6528;BME280;64597;42.664;23.256;2024-01-10T00:23:05;95608.09;;;-3.50;63.15
6528;BME280;64597;42.664;23.256;2024-01-10T00:25:32;95596.06;;;-3.61;62.97
6528;BME280;64597;42.664;23.256;2024-01-10T00:27:57;95615.81;;;-3.50;63.05
6528;BME280;64597;42.664;23.256;2024-01-10T00:30:22;95604.56;;;-3.49;62.88
6528;BME280;64597;42.664;23.256;2024-01-10T00:32:48;95615.75;;;-3.39;62.81
6528;BME280;64597;42.664;23.256;2024-01-10T00:35:13;95621.59;;;-3.37;62.42
6528;BME280;64597;42.664;23.256;2024-01-10T00:37:39;95619.28;;;-3.40;62.32
6528;BME280;64597;42.664;23.256;2024-01-10T00:40:05;95614.13;;;-3.40;62.71
6528;BME280;64597;42.664;23.256;2024-01-10T00:42:30;95616.25;;;-3.45;62.54
6528;BME280;64597;42.664;23.256;2024-01-10T00:44:56;95621.53;;;-3.47;62.41
6528;BME280;64597;42.664;23.256;2024-01-10T00:47:21;95616.50;;;-3.48;62.63
6528;BME280;64597;42.664;23.256;2024-01-10T00:49:47;95626.56;;;-3.45;62.82
6528;BME280;64597;42.664;23.256;2024-01-10T00:52:12;95595.25;;;-3.61;62.64
6528;BME280;64597;42.664;23.256;2024-01-10T00:54:38;95623.97;;;-3.45;62.50
6528;BME280;64597;42.664;23.256;2024-01-10T00:57:03;95626.81;;;-3.48;62.85
6528;BME280;64597;42.664;23.256;2024-01-10T00:59:29;95627.50;;;-3.46;62.71
6528;BME280;64597;42.664;23.256;2024-01-10T01:01:54;95614.63;;;-3.46;62.63
6528;BME280;64597;42.664;23.256;2024-01-10T01:04:19;95621.16;;;-3.42;62.29
6528;BME280;64597;42.664;23.256;2024-01-10T01:06:46;95616.72;;;-3.40;62.25
6528;BME280;64597;42.664;23.256;2024-01-10T01:09:11;95621.50;;;-3.36;62.31
6528;BME280;64597;42.664;23.256;2024-01-10T01:11:38;95615.94;;;-3.31;62.43
6528;BME280;64597;42.664;23.256;2024-01-10T01:14:04;95615.16;;;-3.31;62.43
6528;BME280;64597;42.664;23.256;2024-01-10T01:16:29;95591.31;;;-3.45;61.86
6528;BME280;64597;42.664;23.256;2024-01-10T01:18:55;95614.06;;;-3.29;62.35
6528;BME280;64597;42.664;23.256;2024-01-10T01:21:20;95616.91;;;-3.32;62.13
6528;BME280;64597;42.664;23.256;2024-01-10T01:23:46;95587.47;;;-3.50;62.16
6528;BME280;64597;42.664;23.256;2024-01-10T01:26:11;95611.47;;;-3.29;62.38
6528;BME280;64597;42.664;23.256;2024-01-10T01:28:38;95606.81;;;-3.35;62.36
6528;BME280;64597;42.664;23.256;2024-01-10T01:31:04;95608.47;;;-3.34;61.98
6528;BME280;64597;42.664;23.256;2024-01-10T01:33:30;95573.25;;;-3.65;61.49
6528;BME280;64597;42.664;23.256;2024-01-10T01:35:55;95593.91;;;-3.56;61.39
6528;BME280;64597;42.664;23.256;2024-01-10T01:38:20;95601.91;;;-3.59;61.33
6528;BME280;64597;42.664;23.256;2024-01-10T01:40:46;95602.47;;;-3.55;61.31
6528;BME280;64597;42.664;23.256;2024-01-10T01:43:25;95595.25;;;-3.61;61.44
6528;BME280;64597;42.664;23.256;2024-01-10T01:45:55;95595.25;;;-3.61;61.85
6528;BME280;64597;42.664;23.256;2024-01-10T01:48:22;95590.56;;;-3.67;61.80
6528;BME280;64597;42.664;23.256;2024-01-10T01:50:50;95598.97;;;-3.54;62.26
6528;BME280;64597;42.664;23.256;2024-01-10T01:53:16;95590.09;;;-3.61;62.40
6528;BME280;64597;42.664;23.256;2024-01-10T01:55:44;95591.94;;;-3.52;62.35
6528;BME280;64597;42.664;23.256;2024-01-10T01:58:10;95581.84;;;-3.55;62.58
6528;BME280;64597;42.664;23.256;2024-01-10T02:00:37;95588.59;;;-3.43;62.44
6528;BME280;64597;42.664;23.256;2024-01-10T02:03:04;95578.28;;;-3.43;62.03
6528;BME280;64597;42.664;23.256;2024-01-10T02:05:30;95577.84;;;-3.48;61.64
6528;BME280;64597;42.664;23.256;2024-01-10T02:07:55;95556.84;;;-3.64;61.76
6528;BME280;64597;42.664;23.256;2024-01-10T02:10:21;95587.00;;;-3.55;61.97
6528;BME280;64597;42.664;23.256;2024-01-10T02:12:47;95567.53;;;-3.69;61.44
6528;BME280;64597;42.664;23.256;2024-01-10T02:15:13;95558.28;;;-3.71;61.59
6528;BME280;64597;42.664;23.256;2024-01-10T02:17:39;95574.63;;;-3.61;61.62
6528;BME280;64597;42.664;23.256;2024-01-10T02:20:12;95586.31;;;-3.57;61.49
6528;BME280;64597;42.664;23.256;2024-01-10T02:22:38;95574.50;;;-3.60;61.78
6528;BME280;64597;42.664;23.256;2024-01-10T02:25:05;95579.28;;;-3.55;61.55
6528;BME280;64597;42.664;23.256;2024-01-10T02:27:32;95577.91;;;-3.59;61.61
6528;BME280;64597;42.664;23.256;2024-01-10T02:29:58;95553.75;;;-3.79;61.38
6528;BME280;64597;42.664;23.256;2024-01-10T02:32:24;95564.19;;;-3.80;61.76
6528;BME280;64597;42.664;23.256;2024-01-10T02:34:49;95568.66;;;-3.93;62.61
6528;BME280;64597;42.664;23.256;2024-01-10T02:37:15;95578.88;;;-4.03;62.71
6528;BME280;64597;42.664;23.256;2024-01-10T02:39:41;95581.56;;;-4.04;62.74
6528;BME280;64597;42.664;23.256;2024-01-10T02:42:06;95583.56;;;-4.19;63.16
6528;BME280;64597;42.664;23.256;2024-01-10T02:44:31;95581.72;;;-4.17;63.09
6528;BME280;64597;42.664;23.256;2024-01-10T02:46:57;95567.81;;;-4.26;63.49
6528;BME280;64597;42.664;23.256;2024-01-10T02:49:22;95548.91;;;-4.47;63.62
6528;BME280;64597;42.664;23.256;2024-01-10T02:51:48;95581.16;;;-4.32;63.51
6528;BME280;64597;42.664;23.256;2024-01-10T02:54:13;95582.44;;;-4.26;63.56
6528;BME280;64597;42.664;23.256;2024-01-10T02:56:39;95582.09;;;-4.22;63.45
6528;BME280;64597;42.664;23.256;2024-01-10T02:59:04;95583.91;;;-4.12;63.67
6528;BME280;64597;42.664;23.256;2024-01-10T03:01:30;95577.72;;;-4.10;63.38
6528;BME280;64597;42.664;23.256;2024-01-10T03:03:55;95574.44;;;-4.01;63.64
6528;BME280;64597;42.664;23.256;2024-01-10T03:06:20;95571.94;;;-3.91;63.32
6528;BME280;64597;42.664;23.256;2024-01-10T03:08:46;95577.81;;;-4.00;62.74
6528;BME280;64597;42.664;23.256;2024-01-10T03:11:11;95577.16;;;-4.13;62.80
6528;BME280;64597;42.664;23.256;2024-01-10T03:13:37;95569.66;;;-4.17;62.39
6528;BME280;64597;42.664;23.256;2024-01-10T03:16:04;95555.31;;;-4.30;62.77
6528;BME280;64597;42.664;23.256;2024-01-10T03:18:29;95583.72;;;-4.21;63.07
6528;BME280;64597;42.664;23.256;2024-01-10T03:20:55;95583.25;;;-4.26;63.13
6528;BME280;64597;42.664;23.256;2024-01-10T03:23:21;95577.84;;;-4.23;62.96
6528;BME280;64597;42.664;23.256;2024-01-10T03:25:47;95592.03;;;-4.17;63.25
6528;BME280;64597;42.664;23.256;2024-01-10T03:28:16;95582.88;;;-4.10;63.33
6528;BME280;64597;42.664;23.256;2024-01-10T03:30:44;95599.84;;;-4.07;63.36
6528;BME280;64597;42.664;23.256;2024-01-10T03:33:10;95583.69;;;-4.09;63.25
6528;BME280;64597;42.664;23.256;2024-01-10T03:35:36;95592.47;;;-4.01;63.52
6528;BME280;64597;42.664;23.256;2024-01-10T03:38:01;95588.94;;;-4.00;63.18
6528;BME280;64597;42.664;23.256;2024-01-10T03:40:26;95591.16;;;-3.95;63.23
6528;BME280;64597;42.664;23.256;2024-01-10T03:42:52;95582.59;;;-3.96;63.26
6528;BME280;64597;42.664;23.256;2024-01-10T03:45:18;95594.41;;;-3.93;63.09
6528;BME280;64597;42.664;23.256;2024-01-10T03:47:46;95583.16;;;-3.92;63.20
6528;BME280;64597;42.664;23.256;2024-01-10T03:50:15;95587.25;;;-3.90;63.08
6528;BME280;64597;42.664;23.256;2024-01-10T03:52:42;95584.69;;;-3.90;63.04
6528;BME280;64597;42.664;23.256;2024-01-10T03:55:09;95565.63;;;-3.98;62.67
6528;BME280;64597;42.664;23.256;2024-01-10T03:57:34;95585.72;;;-3.92;62.02
6528;BME280;64597;42.664;23.256;2024-01-10T04:00:00;95577.38;;;-4.17;61.61
6528;BME280;64597;42.664;23.256;2024-01-10T04:02:26;95597.50;;;-4.10;61.90
6528;BME280;64597;42.664;23.256;2024-01-10T04:04:53;95595.88;;;-4.11;62.01
6528;BME280;64597;42.664;23.256;2024-01-10T04:07:18;95611.06;;;-4.08;61.93
6528;BME280;64597;42.664;23.256;2024-01-10T04:09:44;95596.22;;;-4.05;61.57
6528;BME280;64597;42.664;23.256;2024-01-10T04:12:09;95598.78;;;-4.05;62.13
6528;BME280;64597;42.664;23.256;2024-01-10T04:14:35;95584.53;;;-4.09;61.94
6528;BME280;64597;42.664;23.256;2024-01-10T04:17:00;95597.97;;;-4.05;61.47
6528;BME280;64597;42.664;23.256;2024-01-10T04:19:26;95599.28;;;-4.22;61.49
6528;BME280;64597;42.664;23.256;2024-01-10T04:21:52;95601.38;;;-4.05;61.63
6528;BME280;64597;42.664;23.256;2024-01-10T04:24:18;95603.59;;;-4.11;61.61
6528;BME280;64597;42.664;23.256;2024-01-10T04:26:43;95605.44;;;-4.02;61.33
6528;BME280;64597;42.664;23.256;2024-01-10T04:29:09;95609.56;;;-4.11;61.14
6528;BME280;64597;42.664;23.256;2024-01-10T04:31:34;95609.31;;;-4.08;60.97
6528;BME280;64597;42.664;23.256;2024-01-10T04:34:01;95614.34;;;-4.06;61.30
6528;BME280;64597;42.664;23.256;2024-01-10T04:36:27;95615.97;;;-4.05;61.68
6528;BME280;64597;42.664;23.256;2024-01-10T04:38:52;95622.88;;;-4.06;60.84
6528;BME280;64597;42.664;23.256;2024-01-10T04:41:18;95624.16;;;-4.00;60.85
6528;BME280;64597;42.664;23.256;2024-01-10T04:43:44;95632.00;;;-4.02;61.05
6528;BME280;64597;42.664;23.256;2024-01-10T04:46:09;95627.91;;;-4.04;61.57
6528;BME280;64597;42.664;23.256;2024-01-10T04:48:36;95630.81;;;-3.98;61.79
6528;BME280;64597;42.664;23.256;2024-01-10T04:51:01;95628.13;;;-3.96;61.48
6528;BME280;64597;42.664;23.256;2024-01-10T04:53:27;95638.19;;;-3.93;61.17
6528;BME280;64597;42.664;23.256;2024-01-10T04:55:52;95634.91;;;-3.84;61.25
6528;BME280;64597;42.664;23.256;2024-01-10T04:58:18;95640.28;;;-3.76;61.62
6528;BME280;64597;42.664;23.256;2024-01-10T05:00:43;95637.91;;;-3.68;62.24
6528;BME280;64597;42.664;23.256;2024-01-10T05:03:08;95633.19;;;-3.63;62.31
6528;BME280;64597;42.664;23.256;2024-01-10T05:05:34;95623.13;;;-3.66;62.16
6528;BME280;64597;42.664;23.256;2024-01-10T05:07:59;95631.78;;;-3.56;62.42
6528;BME280;64597;42.664;23.256;2024-01-10T05:10:26;95635.75;;;-3.52;62.25
6528;BME280;64597;42.664;23.256;2024-01-10T05:12:52;95635.47;;;-3.49;62.11
6528;BME280;64597;42.664;23.256;2024-01-10T05:15:17;95635.47;;;-3.49;61.88
6528;BME280;64597;42.664;23.256;2024-01-10T05:17:42;95641.31;;;-3.47;61.79
6528;BME280;64597;42.664;23.256;2024-01-10T05:20:08;95649.88;;;-3.47;61.63
6528;BME280;64597;42.664;23.256;2024-01-10T05:22:34;95645.78;;;-3.49;61.20
6528;BME280;64597;42.664;23.256;2024-01-10T05:25:00;95641.94;;;-3.55;61.37
6528;BME280;64597;42.664;23.256;2024-01-10T05:27:26;95646.28;;;-3.55;61.08
6528;BME280;64597;42.664;23.256;2024-01-10T05:29:52;95647.94;;;-3.54;60.70
6528;BME280;64597;42.664;23.256;2024-01-10T05:32:17;95634.00;;;-3.63;60.95
6528;BME280;64597;42.664;23.256;2024-01-10T05:34:44;95653.06;;;-3.54;61.00
6528;BME280;64597;42.664;23.256;2024-01-10T05:37:09;95650.25;;;-3.51;61.09
6528;BME280;64597;42.664;23.256;2024-01-10T05:39:35;95654.22;;;-3.47;60.95
6528;BME280;64597;42.664;23.256;2024-01-10T05:42:00;95655.16;;;-3.48;60.75
6528;BME280;64597;42.664;23.256;2024-01-10T05:44:28;95652.59;;;-3.48;60.92
6528;BME280;64597;42.664;23.256;2024-01-10T05:46:53;95652.59;;;-3.48;61.31
6528;BME280;64597;42.664;23.256;2024-01-10T05:49:19;95652.31;;;-3.45;61.65
6528;BME280;64597;42.664;23.256;2024-01-10T05:51:44;95651.03;;;-3.40;61.98
6528;BME280;64597;42.664;23.256;2024-01-10T05:54:10;95650.44;;;-3.43;61.92
6528;BME280;64597;42.664;23.256;2024-01-10T05:56:35;95659.34;;;-3.36;61.96
6528;BME280;64597;42.664;23.256;2024-01-10T05:59:00;95637.25;;;-3.50;61.52
6528;BME280;64597;42.664;23.256;2024-01-10T06:01:26;95662.97;;;-3.39;61.25
6528;BME280;64597;42.664;23.256;2024-01-10T06:03:52;95664.72;;;-3.39;61.01
6528;BME280;64597;42.664;23.256;2024-01-10T06:06:17;95670.00;;;-3.41;60.35
6528;BME280;64597;42.664;23.256;2024-01-10T06:08:43;95661.50;;;-3.52;60.17
6528;BME280;64597;42.664;23.256;2024-01-10T06:11:08;95674.59;;;-3.44;60.70
6528;BME280;64597;42.664;23.256;2024-01-10T06:13:35;95677.88;;;-3.42;60.46
6528;BME280;64597;42.664;23.256;2024-01-10T06:16:14;95676.81;;;-3.40;60.06
6528;BME280;64597;42.664;23.256;2024-01-10T06:19:05;95672.94;;;-3.45;59.87
6528;BME280;64597;42.664;23.256;2024-01-10T06:21:31;95670.50;;;-3.47;59.74
6528;BME280;64597;42.664;23.256;2024-01-10T06:23:57;95681.06;;;-3.50;59.90
6528;BME280;64597;42.664;23.256;2024-01-10T06:26:22;95679.97;;;-3.47;60.11
6528;BME280;64597;42.664;23.256;2024-01-10T06:28:48;95683.16;;;-3.44;59.89
6528;BME280;64597;42.664;23.256;2024-01-10T06:31:13;95687.34;;;-3.43;59.95
6528;BME280;64597;42.664;23.256;2024-01-10T06:33:39;95675.41;;;-3.44;60.34
6528;BME280;64597;42.664;23.256;2024-01-10T06:36:04;95688.13;;;-3.31;60.44
6528;BME280;64597;42.664;23.256;2024-01-10T06:38:30;95688.81;;;-3.29;60.10
6528;BME280;64597;42.664;23.256;2024-01-10T06:40:56;95691.28;;;-3.27;60.20
6528;BME280;64597;42.664;23.256;2024-01-10T06:43:21;95693.75;;;-3.26;59.94
6528;BME280;64597;42.664;23.256;2024-01-10T06:45:47;95701.84;;;-3.30;59.82
6528;BME280;64597;42.664;23.256;2024-01-10T06:48:13;95712.16;;;-3.30;59.51
6528;BME280;64597;42.664;23.256;2024-01-10T06:50:39;95695.16;;;-3.33;59.50
6528;BME280;64597;42.664;23.256;2024-01-10T06:53:04;95699.47;;;-3.22;59.53
6528;BME280;64597;42.664;23.256;2024-01-10T06:55:30;95705.09;;;-3.17;59.88
6528;BME280;64597;42.664;23.256;2024-01-10T06:57:55;95712.31;;;-3.11;60.41
6528;BME280;64597;42.664;23.256;2024-01-10T07:00:21;95719.31;;;-3.02;60.88
6528;BME280;64597;42.664;23.256;2024-01-10T07:02:47;95696.84;;;-3.11;60.23
6528;BME280;64597;42.664;23.256;2024-01-10T07:05:14;95723.59;;;-2.92;60.53
6528;BME280;64597;42.664;23.256;2024-01-10T07:07:41;95723.09;;;-2.86;60.48
6528;BME280;64597;42.664;23.256;2024-01-10T07:10:06;95717.44;;;-2.80;60.56
6528;BME280;64597;42.664;23.256;2024-01-10T07:12:35;95717.53;;;-2.70;60.72
6528;BME280;64597;42.664;23.256;2024-01-10T07:15:00;95724.06;;;-2.66;60.83
6528;BME280;64597;42.664;23.256;2024-01-10T07:17:28;95722.97;;;-2.64;59.81
6528;BME280;64597;42.664;23.256;2024-01-10T07:19:54;95724.63;;;-2.63;59.83
6528;BME280;64597;42.664;23.256;2024-01-10T07:22:22;95721.09;;;-2.62;58.95
6528;BME280;64597;42.664;23.256;2024-01-10T07:24:48;95727.66;;;-2.58;57.51
6528;BME280;64597;42.664;23.256;2024-01-10T07:27:13;95737.50;;;-2.52;57.58
6528;BME280;64597;42.664;23.256;2024-01-10T07:29:40;95730.72;;;-2.43;57.22
6528;BME280;64597;42.664;23.256;2024-01-10T07:32:06;95736.97;;;-2.45;55.00
6528;BME280;64597;42.664;23.256;2024-01-10T07:34:38;95738.03;;;-2.48;53.82
6528;BME280;64597;42.664;23.256;2024-01-10T07:37:04;95725.78;;;-2.56;53.30
6528;BME280;64597;42.664;23.256;2024-01-10T07:39:29;95743.41;;;-2.40;53.57
6528;BME280;64597;42.664;23.256;2024-01-10T07:41:55;95739.63;;;-2.36;52.61
6528;BME280;64597;42.664;23.256;2024-01-10T07:44:20;95740.16;;;-2.32;52.69
6528;BME280;64597;42.664;23.256;2024-01-10T07:46:46;95738.81;;;-2.27;52.12
6528;BME280;64597;42.664;23.256;2024-01-10T07:49:11;95732.72;;;-2.26;51.66
6528;BME280;64597;42.664;23.256;2024-01-10T07:51:37;95744.06;;;-2.17;50.72
6528;BME280;64597;42.664;23.256;2024-01-10T07:54:02;95739.47;;;-2.14;51.05
6528;BME280;64597;42.664;23.256;2024-01-10T07:56:27;95743.72;;;-2.03;50.90
6528;BME280;64597;42.664;23.256;2024-01-10T07:58:53;95736.69;;;-1.92;50.21
6528;BME280;64597;42.664;23.256;2024-01-10T08:01:18;95725.81;;;-1.95;49.64
6528;BME280;64597;42.664;23.256;2024-01-10T08:03:44;95744.75;;;-1.85;49.54
6528;BME280;64597;42.664;23.256;2024-01-10T08:06:09;95731.00;;;-1.86;48.82
6528;BME280;64597;42.664;23.256;2024-01-10T08:08:37;95745.75;;;-1.77;48.73
6528;BME280;64597;42.664;23.256;2024-01-10T08:11:03;95728.31;;;-1.84;48.27
6528;BME280;64597;42.664;23.256;2024-01-10T08:13:28;95748.28;;;-1.56;47.41
6528;BME280;64597;42.664;23.256;2024-01-10T08:15:53;95756.56;;;-1.52;47.42
6528;BME280;64597;42.664;23.256;2024-01-10T08:18:19;95735.19;;;-1.54;47.53
6528;BME280;64597;42.664;23.256;2024-01-10T08:20:45;95748.72;;;-1.32;47.67
6528;BME280;64597;42.664;23.256;2024-01-10T08:23:10;95739.66;;;-1.17;46.97
6528;BME280;64597;42.664;23.256;2024-01-10T08:25:36;95748.09;;;-1.05;46.71
6528;BME280;64597;42.664;23.256;2024-01-10T08:28:02;95742.41;;;-0.80;46.12
6528;BME280;64597;42.664;23.256;2024-01-10T08:30:27;95738.00;;;-0.41;44.38
6528;BME280;64597;42.664;23.256;2024-01-10T08:32:52;95732.31;;;0.02;45.05
6528;BME280;64597;42.664;23.256;2024-01-10T08:35:18;95741.00;;;0.47;43.88
6528;BME280;64597;42.664;23.256;2024-01-10T08:37:44;95725.31;;;0.66;43.39
6528;BME280;64597;42.664;23.256;2024-01-10T08:40:11;95734.75;;;1.12;43.81
6528;BME280;64597;42.664;23.256;2024-01-10T08:42:39;95743.88;;;1.51;44.33
6528;BME280;64597;42.664;23.256;2024-01-10T08:45:05;95738.91;;;1.83;44.30
6528;BME280;64597;42.664;23.256;2024-01-10T08:47:30;95742.06;;;2.20;44.65
6528;BME280;64597;42.664;23.256;2024-01-10T08:49:58;95741.41;;;2.52;44.53
6528;BME280;64597;42.664;23.256;2024-01-10T08:52:24;95742.34;;;2.85;44.15
6528;BME280;64597;42.664;23.256;2024-01-10T08:54:49;95712.78;;;3.10;44.23
6528;BME280;64597;42.664;23.256;2024-01-10T08:57:14;95738.22;;;3.48;43.84
6528;BME280;64597;42.664;23.256;2024-01-10T08:59:43;95729.44;;;3.73;43.25
6528;BME280;64597;42.664;23.256;2024-01-10T09:02:08;95728.47;;;3.90;42.52
6528;BME280;64597;42.664;23.256;2024-01-10T09:04:34;95725.63;;;4.24;42.75
6528;BME280;64597;42.664;23.256;2024-01-10T09:06:59;95678.19;;;4.12;42.38
6528;BME280;64597;42.664;23.256;2024-01-10T09:09:25;95722.03;;;4.72;41.74
6528;BME280;64597;42.664;23.256;2024-01-10T09:11:50;95717.47;;;4.74;41.32
6528;BME280;64597;42.664;23.256;2024-01-10T09:14:16;95701.75;;;4.82;40.73
6528;BME280;64597;42.664;23.256;2024-01-10T09:16:41;95720.38;;;5.10;40.20
6528;BME280;64597;42.664;23.256;2024-01-10T09:19:06;95721.28;;;5.25;39.73
6528;BME280;64597;42.664;23.256;2024-01-10T09:21:32;95712.59;;;5.24;39.36
6528;BME280;64597;42.664;23.256;2024-01-10T09:23:57;95716.16;;;5.31;38.60
6528;BME280;64597;42.664;23.256;2024-01-10T09:26:23;95715.41;;;5.45;37.56
6528;BME280;64597;42.664;23.256;2024-01-10T09:28:48;95716.75;;;5.41;37.02
6528;BME280;64597;42.664;23.256;2024-01-10T09:31:14;95712.59;;;5.24;36.20
6528;BME280;64597;42.664;23.256;2024-01-10T09:33:40;95711.06;;;5.07;37.71
6528;BME280;64597;42.664;23.256;2024-01-10T09:36:06;95709.25;;;5.38;37.18
6528;BME280;64597;42.664;23.256;2024-01-10T09:38:36;95703.88;;;5.54;37.18
6528;BME280;64597;42.664;23.256;2024-01-10T09:41:03;95704.13;;;5.67;37.18
6528;BME280;64597;42.664;23.256;2024-01-10T09:43:30;95706.03;;;5.73;36.51
6528;BME280;64597;42.664;23.256;2024-01-10T09:45:58;95701.06;;;5.78;36.78
6528;BME280;64597;42.664;23.256;2024-01-10T09:48:25;95700.28;;;5.78;35.71
6528;BME280;64597;42.664;23.256;2024-01-10T09:50:51;95692.38;;;5.63;36.28
6528;BME280;64597;42.664;23.256;2024-01-10T09:53:26;95690.34;;;5.73;34.24
6528;BME280;64597;42.664;23.256;2024-01-10T09:55:52;95699.13;;;5.58;33.99
6528;BME280;64597;42.664;23.256;2024-01-10T09:58:23;95681.59;;;5.21;35.34
6528;BME280;64597;42.664;23.256;2024-01-10T10:00:48;95704.97;;;5.45;36.32
6528;BME280;64597;42.664;23.256;2024-01-10T10:03:14;95701.22;;;5.62;37.26
6528;BME280;64597;42.664;23.256;2024-01-10T10:05:43;95697.88;;;5.54;36.61
6528;BME280;64597;42.664;23.256;2024-01-10T10:08:10;95692.09;;;5.58;36.59
6528;BME280;64597;42.664;23.256;2024-01-10T10:10:37;95695.06;;;5.55;36.31
6528;BME280;64597;42.664;23.256;2024-01-10T10:13:08;95681.25;;;5.47;37.10
6528;BME280;64597;42.664;23.256;2024-01-10T10:15:36;95682.19;;;5.54;36.24
6528;BME280;64597;42.664;23.256;2024-01-10T10:18:02;95670.53;;;5.56;37.90
6528;BME280;64597;42.664;23.256;2024-01-10T10:20:29;95664.81;;;5.75;38.62
6528;BME280;64597;42.664;23.256;2024-01-10T10:25:32;95640.78;;;5.57;38.91
6528;BME280;64597;42.664;23.256;2024-01-10T10:27:59;95642.84;;;5.85;38.55
6528;BME280;64597;42.664;23.256;2024-01-10T10:30:27;95646.91;;;5.87;37.84
6528;BME280;64597;42.664;23.256;2024-01-10T10:32:54;95616.59;;;5.55;37.63
6528;BME280;64597;42.664;23.256;2024-01-10T10:35:20;95631.50;;;5.69;36.23
6528;BME280;64597;42.664;23.256;2024-01-10T10:37:48;95633.19;;;5.62;37.87
6528;BME280;64597;42.664;23.256;2024-01-10T10:40:14;95640.72;;;5.65;38.96
6528;BME280;64597;42.664;23.256;2024-01-10T10:42:44;95624.03;;;5.81;38.58
6528;BME280;64597;42.664;23.256;2024-01-10T10:45:15;95613.19;;;5.69;38.87
6528;BME280;64597;42.664;23.256;2024-01-10T10:47:48;95628.06;;;5.69;38.74
6528;BME280;64597;42.664;23.256;2024-01-10T10:50:21;95632.69;;;5.81;39.53
6528;BME280;64597;42.664;23.256;2024-01-10T10:52:47;95615.50;;;5.87;39.16
6528;BME280;64597;42.664;23.256;2024-01-10T10:55:15;95618.59;;;5.91;37.72
6528;BME280;64597;42.664;23.256;2024-01-10T10:57:43;95617.59;;;5.54;38.17
6528;BME280;64597;42.664;23.256;2024-01-10T11:00:09;95615.22;;;5.45;38.54
6528;BME280;64597;42.664;23.256;2024-01-10T11:02:37;95604.31;;;5.41;38.89
6528;BME280;64597;42.664;23.256;2024-01-10T11:05:03;95599.53;;;5.45;39.13
6528;BME280;64597;42.664;23.256;2024-01-10T11:07:30;95589.78;;;5.39;38.85
6528;BME280;64597;42.664;23.256;2024-01-10T11:09:57;95605.50;;;5.53;39.29
6528;BME280;64597;42.664;23.256;2024-01-10T11:15:48;95595.97;;;5.75;38.83
6528;BME280;64597;42.664;23.256;2024-01-10T11:18:44;95596.06;;;5.81;37.91
6528;BME280;64597;42.664;23.256;2024-01-10T11:24:01;95583.25;;;5.72;37.67
6528;BME280;64597;42.664;23.256;2024-01-10T11:26:27;95578.03;;;5.72;38.75
6528;BME280;64597;42.664;23.256;2024-01-10T11:28:53;95580.66;;;5.72;38.54
6528;BME280;64597;42.664;23.256;2024-01-10T11:31:29;95580.00;;;5.55;38.03
6528;BME280;64597;42.664;23.256;2024-01-10T11:33:56;95575.19;;;5.44;38.11
6528;BME280;64597;42.664;23.256;2024-01-10T11:36:22;95574.56;;;5.57;36.98
6528;BME280;64597;42.664;23.256;2024-01-10T11:44:28;95556.22;;;5.28;38.16
6528;BME280;64597;42.664;23.256;2024-01-10T11:46:54;95538.53;;;5.15;39.55
6528;BME280;64597;42.664;23.256;2024-01-10T11:49:21;95563.00;;;5.37;39.46
6528;BME280;64597;42.664;23.256;2024-01-10T11:51:53;95553.38;;;5.37;38.22
6528;BME280;64597;42.664;23.256;2024-01-10T11:54:44;95545.59;;;5.29;39.35
6528;BME280;64597;42.664;23.256;2024-01-10T11:57:11;95547.41;;;5.29;40.75
6528;BME280;64597;42.664;23.256;2024-01-10T11:59:37;95544.41;;;5.17;39.03
6528;BME280;64597;42.664;23.256;2024-01-10T12:02:03;95539.63;;;5.21;38.70
6528;BME280;64597;42.664;23.256;2024-01-10T12:04:31;95541.69;;;4.88;38.58
6528;BME280;64597;42.664;23.256;2024-01-10T12:06:57;95541.56;;;5.04;39.39
6528;BME280;64597;42.664;23.256;2024-01-10T12:09:23;95544.50;;;5.01;38.80
6528;BME280;64597;42.664;23.256;2024-01-10T12:11:50;95535.88;;;5.00;39.25
6528;BME280;64597;42.664;23.256;2024-01-10T12:14:15;95530.25;;;4.89;39.73
6528;BME280;64597;42.664;23.256;2024-01-10T12:16:41;95535.47;;;4.89;38.73
6528;BME280;64597;42.664;23.256;2024-01-10T12:19:07;95519.59;;;4.76;39.38
6528;BME280;64597;42.664;23.256;2024-01-10T12:21:32;95519.22;;;4.79;40.96
6528;BME280;64597;42.664;23.256;2024-01-10T12:23:58;95527.47;;;4.90;40.91
6528;BME280;64597;42.664;23.256;2024-01-10T12:26:23;95531.13;;;4.81;41.10
6528;BME280;64597;42.664;23.256;2024-01-10T12:28:56;95526.59;;;4.75;42.34
6528;BME280;64597;42.664;23.256;2024-01-10T12:31:23;95521.78;;;4.87;41.90
6528;BME280;64597;42.664;23.256;2024-01-10T12:33:50;95526.03;;;4.88;40.86
6528;BME280;64597;42.664;23.256;2024-01-10T12:36:17;95530.25;;;4.66;40.62
6528;BME280;64597;42.664;23.256;2024-01-10T12:38:43;95514.56;;;4.44;40.53
6528;BME280;64597;42.664;23.256;2024-01-10T12:41:14;95521.06;;;4.48;41.08
6528;BME280;64597;42.664;23.256;2024-01-10T12:43:40;95521.19;;;4.54;40.93
6528;BME280;64597;42.664;23.256;2024-01-10T12:46:10;95526.16;;;4.49;40.95
6528;BME280;64597;42.664;23.256;2024-01-10T12:48:36;95512.03;;;4.36;41.40
6528;BME280;64597;42.664;23.256;2024-01-10T12:51:06;95525.63;;;4.54;42.78
6528;BME280;64597;42.664;23.256;2024-01-10T12:53:37;95522.22;;;4.53;42.27
6528;BME280;64597;42.664;23.256;2024-01-10T12:56:04;95503.16;;;4.45;42.46
6528;BME280;64597;42.664;23.256;2024-01-10T12:58:30;95523.47;;;4.57;41.89
6528;BME280;64597;42.664;23.256;2024-01-10T13:00:56;95529.22;;;4.53;41.30
6528;BME280;64597;42.664;23.256;2024-01-10T13:03:22;95531.53;;;4.48;42.42
6528;BME280;64597;42.664;23.256;2024-01-10T13:05:48;95538.56;;;4.47;40.55
6528;BME280;64597;42.664;23.256;2024-01-10T13:08:13;95526.53;;;4.38;40.43
6528;BME280;64597;42.664;23.256;2024-01-10T13:10:39;95521.09;;;4.25;40.27
6528;BME280;64597;42.664;23.256;2024-01-10T13:13:05;95537.06;;;4.22;39.84
6528;BME280;64597;42.664;23.256;2024-01-10T13:15:30;95532.41;;;4.09;40.74